Time;durP1;ratioP1;P1;durP2;ratioP2;P2;SDS_P1;SDS_P2;PMS_P1;PMS_P2;Temp;Humidity;BMP_temperature;BMP_pressure;BME280_temperature;BME280_humidity;BME280_pressure;Samples;Min_cycle;Max_cycle;Signal;HPM_P1;HPM_P2
2020/12/28 00:01:58;;;;;;;20.98;16.40;;;4.20;99.90;;;;;;5008279;28;20046;-89
2020/12/28 00:04:25;;;;;;;22.20;14.75;;;4.10;99.90;;;;;;5008953;28;20333;-88
2020/12/28 00:06:50;;;;;;;20.08;16.25;;;4.10;99.90;;;;;;5009254;28;20050;-89
2020/12/28 00:09:16;;;;;;;20.42;16.50;;;4.10;99.90;;;;;;5009879;28;20042;-89
2020/12/28 00:11:42;;;;;;;27.15;18.90;;;4.00;99.90;;;;;;5026605;28;20060;-89
2020/12/28 00:14:07;;;;;;;26.23;18.70;;;4.00;99.90;;;;;;5024975;28;20050;-88
2020/12/28 00:16:33;;;;;;;23.15;18.95;;;4.00;99.90;;;;;;5027547;28;20045;-87
2020/12/28 00:18:59;;;;;;;26.65;20.90;;;4.00;99.90;;;;;;5026024;28;20410;-89
2020/12/28 00:21:25;;;;;;;28.48;20.00;;;4.10;99.90;;;;;;5009522;28;20509;-87
2020/12/28 00:23:50;;;;;;;27.33;21.20;;;4.00;99.90;;;;;;5008523;28;20057;-88
2020/12/28 00:26:16;;;;;;;30.05;20.92;;;4.00;99.90;;;;;;5024676;28;20049;-88
2020/12/28 00:28:42;;;;;;;33.30;23.10;;;4.00;99.90;;;;;;5023351;28;20081;-89
2020/12/28 00:31:09;;;;;;;38.00;24.25;;;4.00;99.90;;;;;;5008200;28;20120;-86
2020/12/28 00:33:35;;;;;;;38.95;24.25;;;3.90;99.90;;;;;;5007387;28;20204;-87
2020/12/28 00:36:01;;;;;;;36.22;24.65;;;4.00;99.90;;;;;;5024369;28;20465;-87
2020/12/28 00:38:26;;;;;;;41.47;25.27;;;3.90;99.90;;;;;;5026573;28;20042;-88
2020/12/28 00:40:52;;;;;;;50.30;27.13;;;3.80;99.90;;;;;;5023607;28;20114;-88
2020/12/28 00:43:18;;;;;;;50.00;27.23;;;3.80;99.90;;;;;;5027036;28;20061;-88
2020/12/28 00:45:44;;;;;;;56.92;30.83;;;3.90;99.90;;;;;;5022748;28;20076;-88
2020/12/28 00:48:12;;;;;;;55.40;27.80;;;3.80;99.90;;;;;;5027604;28;20055;-88
2020/12/28 00:50:38;;;;;;;56.50;28.67;;;3.80;99.90;;;;;;5010301;28;20050;-88
2020/12/28 00:53:03;;;;;;;60.28;30.27;;;3.80;99.90;;;;;;5007846;28;20547;-88
2020/12/28 00:55:29;;;;;;;59.00;31.67;;;3.80;99.90;;;;;;5020543;28;20041;-87
2020/12/28 00:57:55;;;;;;;54.25;29.50;;;3.80;99.90;;;;;;5027187;28;20052;-88
2020/12/28 01:00:21;;;;;;;55.55;30.50;;;3.80;99.90;;;;;;5022396;28;20041;-89
2020/12/28 01:02:46;;;;;;;60.53;29.95;;;3.80;99.90;;;;;;5026569;28;20052;-88
2020/12/28 01:05:12;;;;;;;59.70;31.58;;;3.80;99.90;;;;;;5010731;28;20050;-88
2020/12/28 01:07:38;;;;;;;58.85;32.78;;;3.80;99.90;;;;;;5008205;28;20045;-87
2020/12/28 01:10:03;;;;;;;61.00;34.95;;;3.80;99.90;;;;;;5020508;28;20050;-87
2020/12/28 01:12:31;;;;;;;52.25;28.98;;;3.90;99.90;;;;;;5028250;28;20557;-88
2020/12/28 01:14:57;;;;;;;55.75;29.15;;;3.80;99.90;;;;;;5013688;28;20477;-87
2020/12/28 01:17:23;;;;;;;60.75;32.20;;;3.80;99.90;;;;;;5006726;28;20049;-88
2020/12/28 01:19:49;;;;;;;62.92;30.42;;;3.70;99.90;;;;;;5018283;28;20045;-88
2020/12/28 01:22:14;;;;;;;55.50;30.52;;;3.70;99.90;;;;;;5025945;28;20129;-87
2020/12/28 01:24:40;;;;;;;59.85;33.15;;;3.80;99.90;;;;;;5014139;28;20057;-87
2020/12/28 01:27:05;;;;;;;65.45;33.70;;;3.80;99.90;;;;;;5006039;28;20120;-87
2020/12/28 01:29:31;;;;;;;59.72;29.77;;;3.70;99.90;;;;;;5013522;28;20045;-87
2020/12/28 01:31:57;;;;;;;60.08;31.67;;;3.70;99.90;;;;;;5027129;28;20049;-88
2020/12/28 01:34:22;;;;;;;49.17;27.88;;;3.70;99.90;;;;;;5015852;28;20058;-88
2020/12/28 01:36:49;;;;;;;58.10;27.95;;;3.60;99.90;;;;;;5005471;28;20390;-89
2020/12/28 01:39:14;;;;;;;84.57;36.05;;;3.50;99.90;;;;;;5006512;28;20144;-87
2020/12/28 01:41:41;;;;;;;88.18;37.70;;;3.60;99.90;;;;;;5005255;28;20044;-85
2020/12/28 01:44:06;;;;;;;97.50;37.83;;;3.60;99.90;;;;;;5006580;28;20050;-87
2020/12/28 01:46:32;;;;;;;121.57;42.55;;;3.60;99.90;;;;;;5005613;28;20124;-86
2020/12/28 01:48:58;;;;;;;102.63;40.85;;;3.60;99.90;;;;;;5007896;28;20057;-88
2020/12/28 01:51:25;;;;;;;84.75;38.17;;;3.60;99.90;;;;;;5024738;28;20046;-88
2020/12/28 01:53:52;;;;;;;88.30;38.65;;;3.70;99.90;;;;;;5020268;28;20042;-88
2020/12/28 01:56:20;;;;;;;79.15;38.67;;;3.80;99.90;;;;;;5004369;28;20046;-87
2020/12/28 01:58:46;;;;;;;84.55;43.97;;;3.80;99.90;;;;;;5010684;28;20053;-86
2020/12/28 02:01:15;;;;;;;99.72;41.00;;;3.80;99.90;;;;;;5004735;28;20077;-85
2020/12/28 02:03:42;;;;;;;87.43;37.28;;;3.80;99.90;;;;;;5011714;28;20045;-87
2020/12/28 02:06:07;;;;;;;108.82;37.35;;;3.70;99.90;;;;;;5008692;28;20432;-86
2020/12/28 02:08:33;;;;;;;131.85;43.60;;;3.70;99.90;;;;;;5010682;28;20079;-86
2020/12/28 02:11:00;;;;;;;87.32;34.83;;;3.70;99.90;;;;;;5026844;28;20033;-86
2020/12/28 02:13:25;;;;;;;162.02;42.83;;;3.80;99.90;;;;;;5031618;28;20025;-86
2020/12/28 02:15:51;;;;;;;288.15;49.35;;;3.80;99.90;;;;;;5035963;28;20048;-86
2020/12/28 02:18:20;;;;;;;221.25;48.50;;;3.70;99.90;;;;;;5034681;28;20127;-85
2020/12/28 02:20:46;;;;;;;199.43;53.30;;;3.70;99.90;;;;;;5015583;28;20126;-86
2020/12/28 02:23:12;;;;;;;159.02;44.97;;;3.80;99.90;;;;;;5027301;28;20045;-86
2020/12/28 02:25:38;;;;;;;247.43;50.75;;;3.80;99.90;;;;;;5042798;28;20050;-88
2020/12/28 02:28:03;;;;;;;167.60;47.70;;;3.80;99.90;;;;;;5047820;28;20037;-87
2020/12/28 02:30:29;;;;;;;174.82;49.55;;;3.90;99.90;;;;;;5030826;28;20064;-87
2020/12/28 02:32:54;;;;;;;193.55;52.25;;;3.90;99.90;;;;;;5028216;28;20041;-85
2020/12/28 02:35:20;;;;;;;179.85;53.65;;;3.90;99.90;;;;;;5035110;28;20177;-85
2020/12/28 02:37:46;;;;;;;208.07;52.65;;;3.90;99.90;;;;;;5035574;28;20044;-86
2020/12/28 02:40:11;;;;;;;189.52;53.45;;;3.90;99.90;;;;;;5016604;28;20366;-85
2020/12/28 02:42:38;;;;;;;164.13;52.92;;;3.90;99.90;;;;;;5016704;28;20085;-87
2020/12/28 02:45:04;;;;;;;174.63;54.85;;;3.90;99.90;;;;;;5012278;28;20049;-86
2020/12/28 02:47:29;;;;;;;165.15;53.72;;;3.90;99.90;;;;;;5017202;28;20128;-86
2020/12/28 02:49:55;;;;;;;146.70;54.55;;;3.90;99.90;;;;;;5015269;28;20113;-86
2020/12/28 02:52:21;;;;;;;144.13;51.25;;;4.00;99.90;;;;;;5027092;28;20038;-86
2020/12/28 02:54:46;;;;;;;126.53;47.33;;;4.00;99.90;;;;;;5026879;28;20046;-87
2020/12/28 02:57:12;;;;;;;122.95;48.45;;;4.00;99.90;;;;;;5028168;28;20045;-86
2020/12/28 02:59:37;;;;;;;113.32;48.00;;;4.00;99.90;;;;;;5009438;28;20486;-87
2020/12/28 03:02:03;;;;;;;121.82;46.80;;;4.00;99.90;;;;;;5023433;28;20053;-87
2020/12/28 03:04:28;;;;;;;118.38;45.05;;;4.00;99.90;;;;;;5030000;28;20049;-87
2020/12/28 03:06:54;;;;;;;110.25;45.35;;;4.00;99.90;;;;;;5029973;28;20084;-86
2020/12/28 03:09:20;;;;;;;106.60;43.15;;;4.00;99.90;;;;;;5010732;28;20581;-86
2020/12/28 03:11:45;;;;;;;105.88;45.05;;;3.90;99.90;;;;;;5019712;28;20352;-86
2020/12/28 03:14:11;;;;;;;101.70;44.65;;;4.00;99.90;;;;;;5012251;28;20050;-86
2020/12/28 03:16:36;;;;;;;86.63;43.65;;;3.90;99.90;;;;;;5009052;28;20517;-87
2020/12/28 03:19:02;;;;;;;91.50;42.92;;;3.90;99.90;;;;;;5021607;28;20053;-86
2020/12/28 03:21:28;;;;;;;93.22;42.03;;;3.90;99.90;;;;;;5020484;28;20132;-86
2020/12/28 03:23:53;;;;;;;98.93;43.92;;;3.90;99.90;;;;;;5007511;28;20049;-87
2020/12/28 03:26:19;;;;;;;83.65;43.10;;;3.90;99.90;;;;;;5016545;28;20045;-87
2020/12/28 03:28:45;;;;;;;83.90;38.85;;;3.80;99.90;;;;;;5015110;28;20474;-86
2020/12/28 03:31:10;;;;;;;106.70;44.67;;;3.80;99.90;;;;;;5023233;28;20037;-87
2020/12/28 03:33:36;;;;;;;111.38;45.55;;;3.80;99.90;;;;;;5028386;28;20069;-88
2020/12/28 03:36:02;;;;;;;124.03;50.40;;;3.80;99.90;;;;;;5020752;28;20095;-86
2020/12/28 03:38:27;;;;;;;141.23;49.78;;;3.80;99.90;;;;;;5027516;28;20041;-86
2020/12/28 03:40:53;;;;;;;153.27;51.92;;;3.80;99.90;;;;;;5017812;28;20302;-87
2020/12/28 03:43:19;;;;;;;169.02;54.25;;;3.80;99.90;;;;;;5016455;28;20514;-85
2020/12/28 03:45:45;;;;;;;135.57;51.97;;;3.80;99.90;;;;;;5025387;28;20045;-86
2020/12/28 03:48:10;;;;;;;146.05;51.40;;;3.80;99.90;;;;;;5015699;28;20041;-87
2020/12/28 03:50:36;;;;;;;142.02;48.47;;;3.80;99.90;;;;;;5026861;28;20053;-86
2020/12/28 03:53:02;;;;;;;128.10;50.85;;;3.80;99.90;;;;;;5012670;28;20041;-85
2020/12/28 03:55:27;;;;;;;116.18;45.90;;;3.80;99.90;;;;;;5026074;28;20464;-87
2020/12/28 03:57:53;;;;;;;122.75;46.67;;;3.80;99.90;;;;;;5021189;28;20133;-85
2020/12/28 04:00:19;;;;;;;114.03;44.47;;;3.80;99.90;;;;;;5007769;28;20129;-86
2020/12/28 04:02:44;;;;;;;112.63;46.83;;;3.80;99.90;;;;;;5008714;28;20140;-87
2020/12/28 04:05:10;;;;;;;101.45;44.38;;;3.80;99.90;;;;;;5007657;28;20431;-86
2020/12/28 04:07:35;;;;;;;100.75;46.50;;;3.80;99.90;;;;;;5023866;28;20064;-87
2020/12/28 04:10:01;;;;;;;109.20;47.00;;;3.90;99.90;;;;;;5006055;28;20132;-85
2020/12/28 04:12:27;;;;;;;106.03;50.85;;;3.90;99.90;;;;;;5022201;28;20269;-85
2020/12/28 04:14:52;;;;;;;105.38;43.83;;;3.90;99.90;;;;;;5024377;28;20144;-85
2020/12/28 04:17:18;;;;;;;89.18;40.72;;;3.90;99.90;;;;;;5006675;28;20215;-86
2020/12/28 04:19:43;;;;;;;95.43;43.45;;;3.80;99.90;;;;;;5025173;28;20665;-87
2020/12/28 04:22:09;;;;;;;111.55;46.83;;;3.80;99.90;;;;;;5024155;28;20129;-86
2020/12/28 04:24:35;;;;;;;84.70;42.20;;;3.80;99.90;;;;;;5010097;28;20046;-87
2020/12/28 04:27:01;;;;;;;103.13;45.65;;;3.80;99.90;;;;;;5018836;28;20295;-86
2020/12/28 04:29:27;;;;;;;92.40;46.90;;;3.80;99.90;;;;;;5009979;28;20462;-87
2020/12/28 04:31:53;;;;;;;89.65;43.92;;;3.80;99.90;;;;;;5017597;28;20695;-86
2020/12/28 04:34:18;;;;;;;89.72;46.67;;;3.80;99.90;;;;;;5021220;28;20064;-86
2020/12/28 04:36:44;;;;;;;80.13;38.75;;;3.80;99.90;;;;;;5025529;28;20053;-86
2020/12/28 04:39:10;;;;;;;95.50;48.22;;;3.80;99.90;;;;;;5021257;28;20489;-85
2020/12/28 04:41:35;;;;;;;106.28;43.20;;;3.80;99.90;;;;;;5018497;28;20101;-85
2020/12/28 04:44:02;;;;;;;83.55;39.97;;;3.80;99.90;;;;;;5015182;28;20096;-86
2020/12/28 04:46:30;;;;;;;74.63;37.10;;;3.80;99.90;;;;;;5025639;28;20045;-86
2020/12/28 04:48:56;;;;;;;68.63;40.20;;;3.80;99.90;;;;;;5031208;28;20048;-87
2020/12/28 04:51:23;;;;;;;83.55;39.03;;;3.90;99.90;;;;;;5044772;28;20140;-86
2020/12/28 04:53:51;;;;;;;85.25;42.33;;;3.90;99.90;;;;;;5024780;28;20050;-86
2020/12/28 04:56:21;;;;;;;73.22;39.05;;;3.90;99.90;;;;;;5023605;28;20104;-85
2020/12/28 04:58:47;;;;;;;63.38;35.50;;;3.90;99.90;;;;;;5020680;28;20094;-87
2020/12/28 05:01:13;;;;;;;52.95;35.08;;;3.90;99.90;;;;;;5010672;28;20511;-85
2020/12/28 05:03:40;;;;;;;54.25;33.35;;;3.90;99.90;;;;;;5024223;28;20168;-85
2020/12/28 05:06:07;;;;;;;60.20;35.72;;;3.90;99.90;;;;;;5024643;28;20129;-86
2020/12/28 05:08:32;;;;;;;55.40;36.80;;;4.00;99.90;;;;;;5010460;28;20048;-85
2020/12/28 05:11:08;;;;;;;61.67;33.15;;;4.00;99.90;;;;;;5024963;28;20046;-87
2020/12/28 05:13:34;;;;;;;58.78;37.97;;;4.00;99.90;;;;;;5010840;28;20048;-87
2020/12/28 05:16:00;;;;;;;57.55;36.13;;;4.00;99.90;;;;;;5023987;28;20045;-85
2020/12/28 05:18:26;;;;;;;57.20;35.67;;;4.00;99.90;;;;;;5022043;28;20057;-84
2020/12/28 05:20:51;;;;;;;54.67;37.25;;;4.00;99.90;;;;;;5023260;28;20187;-87
2020/12/28 05:23:18;;;;;;;54.45;33.90;;;3.90;99.90;;;;;;5012570;28;20430;-86
2020/12/28 05:25:46;;;;;;;58.15;35.88;;;3.90;99.90;;;;;;5004654;28;20384;-86
2020/12/28 05:28:15;;;;;;;61.30;34.10;;;3.90;99.90;;;;;;5024066;28;20116;-85
2020/12/28 05:30:44;;;;;;;59.53;36.20;;;3.90;99.90;;;;;;5023942;28;20041;-85
2020/12/28 05:33:10;;;;;;;65.30;35.38;;;3.90;99.90;;;;;;5016520;28;20051;-86
2020/12/28 05:35:36;;;;;;;60.08;32.90;;;3.90;99.90;;;;;;5024691;28;20056;-86
2020/12/28 05:38:05;;;;;;;50.58;33.65;;;3.90;99.90;;;;;;5016815;28;20038;-86
2020/12/28 05:40:32;;;;;;;57.42;34.85;;;3.90;99.90;;;;;;5031121;28;20060;-86
2020/12/28 05:42:58;;;;;;;56.60;34.15;;;3.90;99.90;;;;;;5015346;28;20041;-85
2020/12/28 05:45:24;;;;;;;54.20;33.08;;;3.90;99.90;;;;;;5006173;28;20524;-86
2020/12/28 05:47:54;;;;;;;59.97;34.28;;;3.90;99.90;;;;;;5004432;28;20038;-87
2020/12/28 05:50:21;;;;;;;49.95;32.47;;;3.90;99.90;;;;;;5006174;28;20046;-86
2020/12/28 05:52:55;;;;;;;49.72;31.48;;;3.90;99.90;;;;;;5019861;28;20515;-86
2020/12/28 05:55:21;;;;;;;;;;;3.90;99.90;;;;;;5022508;28;20041;-86
2020/12/28 05:57:47;;;;;;;56.00;31.85;;;3.90;99.90;;;;;;5013957;28;19967;-86
2020/12/28 06:00:13;;;;;;;50.25;30.30;;;3.90;99.90;;;;;;5024724;28;20061;-86
2020/12/28 06:02:40;;;;;;;47.05;31.67;;;3.90;99.90;;;;;;5014585;28;20062;-85
2020/12/28 06:05:11;;;;;;;62.72;32.28;;;3.90;99.90;;;;;;5024587;28;20149;-85
2020/12/28 06:07:37;;;;;;;53.55;33.17;;;3.90;99.90;;;;;;5012207;28;20322;-85
2020/12/28 06:10:04;;;;;;;48.33;31.58;;;3.90;99.90;;;;;;5022967;28;20045;-86
2020/12/28 06:12:31;;;;;;;49.30;30.65;;;3.90;99.90;;;;;;5014481;28;20394;-86
2020/12/28 06:14:58;;;;;;;48.85;30.35;;;3.90;99.90;;;;;;5025139;28;20049;-85
2020/12/28 06:17:36;;;;;;;47.13;30.92;;;3.90;99.90;;;;;;5021138;28;20545;-86
2020/12/28 06:20:06;;;;;;;52.80;32.60;;;3.80;99.90;;;;;;5011022;28;20046;-86
2020/12/28 06:22:32;;;;;;;47.35;29.05;;;3.90;99.90;;;;;;5023469;28;20044;-86
2020/12/28 06:25:06;;;;;;;57.00;31.35;;;3.90;99.90;;;;;;5029427;28;20073;-86
2020/12/28 06:27:43;;;;;;;54.47;33.88;;;3.90;99.90;;;;;;5024759;28;20045;-85
2020/12/28 06:30:14;;;;;;;59.80;32.95;;;3.90;99.90;;;;;;5030578;28;20119;-85
2020/12/28 06:32:41;;;;;;;55.28;32.67;;;3.90;99.90;;;;;;5025291;28;20041;-86
2020/12/28 06:35:09;;;;;;;54.95;33.15;;;3.90;99.90;;;;;;5030244;28;20056;-86
2020/12/28 06:37:40;;;;;;;58.65;31.98;;;3.90;99.90;;;;;;5027009;28;20096;-85
2020/12/28 06:40:07;;;;;;;56.92;32.00;;;3.90;99.90;;;;;;5029768;28;20485;-86
2020/12/28 06:42:32;;;;;;;54.90;32.28;;;3.90;99.90;;;;;;5027246;28;20091;-86
2020/12/28 06:45:08;;;;;;;63.08;35.08;;;3.90;99.90;;;;;;5030447;28;20045;-84
2020/12/28 06:47:34;;;;;;;63.08;37.03;;;3.90;99.90;;;;;;5017173;28;20702;-86
2020/12/28 06:50:00;;;;;;;61.38;35.33;;;3.90;99.90;;;;;;5011054;28;20050;-85
2020/12/28 06:52:26;;;;;;;64.78;38.28;;;3.90;99.90;;;;;;5012562;28;20061;-86
2020/12/28 06:54:51;;;;;;;59.35;36.30;;;4.00;99.90;;;;;;5018709;28;20033;-85
2020/12/28 06:57:22;;;;;;;69.07;36.72;;;4.00;99.90;;;;;;5021393;28;20053;-84
2020/12/28 06:59:49;;;;;;;70.78;37.50;;;4.00;99.90;;;;;;5010916;28;20060;-85
2020/12/28 07:02:17;;;;;;;71.07;38.15;;;4.00;99.90;;;;;;5012935;28;20045;-85
2020/12/28 07:04:43;;;;;;;57.03;34.15;;;4.00;99.90;;;;;;5010373;28;20494;-85
2020/12/28 07:07:09;;;;;;;66.50;36.70;;;4.00;99.90;;;;;;5031103;28;20037;-85
2020/12/28 07:09:35;;;;;;;61.53;36.03;;;4.00;99.90;;;;;;5042143;28;20061;-85
2020/12/28 07:12:07;;;;;;;57.67;34.83;;;4.00;99.90;;;;;;5040494;28;20041;-87
2020/12/28 07:14:32;;;;;;;63.58;33.63;;;4.00;99.90;;;;;;5039779;28;20047;-86
2020/12/28 07:16:58;;;;;;;77.55;39.15;;;4.00;99.90;;;;;;5036054;28;20065;-85
2020/12/28 07:19:24;;;;;;;69.57;38.25;;;4.10;99.90;;;;;;5046160;28;20061;-86
2020/12/28 07:21:50;;;;;;;69.43;37.05;;;4.10;99.90;;;;;;5031509;28;20038;-86
2020/12/28 07:24:15;;;;;;;61.63;36.75;;;4.10;99.90;;;;;;5016972;28;20042;-86
2020/12/28 07:26:42;;;;;;;65.13;34.40;;;4.10;99.90;;;;;;5023659;28;20061;-85
2020/12/28 07:29:13;;;;;;;65.75;35.10;;;4.10;99.90;;;;;;5022845;28;20049;-86
2020/12/28 07:31:40;;;;;;;56.70;31.13;;;4.10;99.90;;;;;;5021951;28;20049;-85
2020/12/28 07:34:06;;;;;;;62.58;30.48;;;4.00;99.90;;;;;;5025264;28;20046;-84
2020/12/28 07:36:36;;;;;;;56.95;31.70;;;3.90;99.90;;;;;;5023818;28;20127;-86
2020/12/28 07:39:03;;;;;;;48.33;28.30;;;3.90;99.90;;;;;;5029545;28;20111;-85
2020/12/28 07:41:28;;;;;;;48.65;30.75;;;3.90;99.90;;;;;;5031888;28;20493;-85
2020/12/28 07:43:56;;;;;;;45.42;28.98;;;3.80;99.90;;;;;;5028944;28;20056;-85
2020/12/28 07:46:32;;;;;;;50.33;33.30;;;3.80;99.90;;;;;;5024940;28;20037;-85
2020/12/28 07:49:03;;;;;;;49.63;30.50;;;3.70;99.90;;;;;;5026490;28;20057;-85
2020/12/28 07:51:32;;;;;;;48.50;29.73;;;3.70;99.90;;;;;;5023542;28;20571;-86
2020/12/28 07:54:10;;;;;;;42.85;25.80;;;3.60;99.90;;;;;;5014278;28;20107;-86
2020/12/28 07:56:45;;;;;;;35.80;25.05;;;3.50;99.90;;;;;;5025236;28;20129;-85
2020/12/28 07:59:41;;;;;;;40.65;25.38;;;3.50;99.90;;;;;;5025851;28;20133;-86
2020/12/28 08:02:37;;;;;;;42.47;27.77;;;3.50;99.90;;;;;;5026793;28;20060;-87
2020/12/28 08:05:03;;;;;;;48.03;28.33;;;3.50;99.90;;;;;;5025435;28;20135;-86
2020/12/28 08:07:34;;;;;;;44.05;26.48;;;3.50;99.90;;;;;;5023901;28;20071;-85
2020/12/28 08:10:00;;;;;;;43.92;26.80;;;3.50;99.90;;;;;;5022226;28;20033;-87
2020/12/28 08:12:30;;;;;;;44.75;25.35;;;3.50;99.90;;;;;;5025625;28;20046;-86
2020/12/28 08:14:56;;;;;;;43.92;25.45;;;3.50;99.90;;;;;;5026363;28;20456;-86
2020/12/28 08:17:26;;;;;;;42.88;27.33;;;3.50;99.90;;;;;;5024636;28;20060;-86
2020/12/28 08:20:12;;;;;;;48.00;27.52;;;3.50;99.90;;;;;;5025378;28;20133;-83
2020/12/28 08:22:40;;;;;;;50.30;28.15;;;3.40;99.90;;;;;;5024414;28;20248;-83
2020/12/28 08:25:07;;;;;;;50.30;29.45;;;3.50;99.90;;;;;;5023411;28;20080;-84
2020/12/28 08:27:33;;;;;;;49.78;27.50;;;3.50;99.90;;;;;;5024323;28;20415;-84
2020/12/28 08:30:00;;;;;;;48.25;31.15;;;3.50;99.90;;;;;;5024839;28;20099;-84
2020/12/28 08:32:27;;;;;;;47.80;28.23;;;3.50;99.90;;;;;;5039779;28;20041;-84
2020/12/28 08:34:58;;;;;;;53.20;27.35;;;3.50;99.90;;;;;;5024942;28;20114;-84
2020/12/28 08:37:24;;;;;;;46.35;27.08;;;3.50;99.90;;;;;;5023461;28;20416;-85
2020/12/28 08:39:51;;;;;;;42.42;27.13;;;3.50;99.90;;;;;;5022824;28;20099;-85
2020/12/28 08:42:33;;;;;;;54.35;29.25;;;3.50;99.90;;;;;;5024194;28;20103;-84
2020/12/28 08:45:01;;;;;;;47.78;29.95;;;3.40;99.90;;;;;;5024734;28;20088;-84
2020/12/28 08:47:28;;;;;;;47.50;29.98;;;3.40;99.90;;;;;;5023814;28;20463;-83
2020/12/28 08:49:55;;;;;;;48.78;28.38;;;3.50;99.90;;;;;;5024929;28;20103;-80
2020/12/28 08:52:22;;;;;;;49.70;28.17;;;3.50;99.90;;;;;;5024369;28;20096;-83
2020/12/28 08:54:56;;;;;;;41.50;27.42;;;3.80;99.90;;;;;;5023802;28;20104;-84
2020/12/28 08:57:24;;;;;;;47.30;28.00;;;3.70;99.90;;;;;;5024502;28;20043;-80
2020/12/28 08:59:51;;;;;;;49.20;29.55;;;3.50;99.90;;;;;;5024528;28;20571;-85
2020/12/28 09:02:19;;;;;;;48.28;29.02;;;3.50;99.90;;;;;;5024175;28;20079;-82
2020/12/28 09:04:45;;;;;;;43.03;29.42;;;3.50;99.90;;;;;;5022660;28;20068;-84
2020/12/28 09:07:11;;;;;;;48.85;31.80;;;3.40;99.90;;;;;;5019058;28;20394;-84
2020/12/28 09:09:39;;;;;;;49.90;32.30;;;3.40;99.90;;;;;;5022576;28;20042;-84
2020/12/28 09:12:05;;;;;;;44.60;27.05;;;3.40;99.90;;;;;;5023709;28;20049;-84
2020/12/28 09:14:30;;;;;;;47.08;33.08;;;3.40;99.90;;;;;;5023430;28;20083;-84
2020/12/28 09:16:56;;;;;;;47.53;28.15;;;3.40;99.90;;;;;;5022791;28;20049;-83
2020/12/28 09:19:21;;;;;;;44.58;29.13;;;3.40;99.90;;;;;;5019948;28;20057;-85
2020/12/28 09:21:47;;;;;;;45.30;28.95;;;3.40;99.90;;;;;;5023822;28;20073;-82
2020/12/28 09:24:13;;;;;;;43.83;28.63;;;3.40;99.90;;;;;;5022581;28;20150;-83
2020/12/28 09:26:38;;;;;;;43.15;29.30;;;3.40;99.90;;;;;;5021840;28;20233;-83
2020/12/28 09:29:04;;;;;;;44.17;31.95;;;3.30;99.90;;;;;;5020075;28;20041;-83
2020/12/28 09:31:30;;;;;;;41.92;28.08;;;3.30;99.90;;;;;;5022663;28;20516;-83
2020/12/28 09:33:55;;;;;;;44.15;27.90;;;3.30;99.90;;;;;;5017117;28;20057;-85
2020/12/28 09:36:21;;;;;;;46.97;29.80;;;3.30;99.90;;;;;;5020533;28;20103;-83
2020/12/28 09:38:48;;;;;;;42.72;30.17;;;3.30;99.90;;;;;;5013182;28;20041;-80
2020/12/28 09:41:13;;;;;;;41.05;26.85;;;3.30;99.90;;;;;;5017808;28;20052;-83
2020/12/28 09:43:40;;;;;;;40.35;26.90;;;3.40;99.90;;;;;;5017000;28;20111;-83
2020/12/28 09:46:06;;;;;;;43.03;26.92;;;3.40;99.90;;;;;;5018439;28;20049;-83
2020/12/28 09:48:31;;;;;;;39.50;25.83;;;3.40;99.90;;;;;;5022100;28;20054;-83
2020/12/28 09:50:57;;;;;;;43.38;26.45;;;3.30;99.90;;;;;;5027418;28;20053;-83
2020/12/28 09:53:23;;;;;;;41.17;25.40;;;3.40;99.90;;;;;;5019229;28;20091;-84
2020/12/28 09:55:49;;;;;;;45.47;27.00;;;3.50;99.90;;;;;;5017126;28;20508;-84
2020/12/28 09:58:14;;;;;;;36.25;26.08;;;3.50;99.90;;;;;;5017279;28;20938;-83
2020/12/28 10:00:40;;;;;;;36.88;24.75;;;3.50;99.90;;;;;;5020883;28;20048;-84
2020/12/28 10:03:05;;;;;;;36.42;25.02;;;3.60;99.90;;;;;;5021494;28;20042;-82
2020/12/28 10:05:31;;;;;;;33.67;23.88;;;3.60;99.90;;;;;;5024447;28;20132;-85
2020/12/28 10:07:57;;;;;;;40.67;24.35;;;3.60;99.90;;;;;;5025210;28;20073;-83
2020/12/28 10:10:22;;;;;;;32.47;23.02;;;3.70;99.90;;;;;;5028867;28;20041;-83
2020/12/28 10:12:48;;;;;;;31.95;18.85;;;3.80;99.90;;;;;;5040250;28;20048;-83
2020/12/28 10:15:15;;;;;;;23.20;18.50;;;3.80;99.90;;;;;;5039361;28;20042;-83
2020/12/28 10:18:20;;;;;;;27.55;20.27;;;3.70;99.90;;;;;;5037751;28;20052;-83
2020/12/28 10:20:45;;;;;;;21.67;16.77;;;3.80;99.90;;;;;;5019227;28;20041;-82
2020/12/28 10:23:11;;;;;;;23.42;17.08;;;3.70;99.90;;;;;;5020807;28;20488;-80
2020/12/28 10:25:37;;;;;;;27.55;15.95;;;3.70;99.90;;;;;;5021027;28;20084;-79
2020/12/28 10:28:02;;;;;;;26.05;18.20;;;3.80;99.90;;;;;;5019125;28;20053;-80
2020/12/28 10:30:29;;;;;;;27.08;16.63;;;3.80;99.90;;;;;;5019059;28;20111;-81
2020/12/28 10:32:55;;;;;;;25.20;15.45;;;3.80;99.90;;;;;;5018806;28;20231;-81
2020/12/28 10:35:21;;;;;;;26.70;16.05;;;3.80;99.90;;;;;;5019563;28;20110;-81
2020/12/28 10:37:46;;;;;;;21.08;14.25;;;3.90;99.90;;;;;;5021073;28;20068;-81
2020/12/28 10:40:12;;;;;;;25.23;16.58;;;4.00;99.90;;;;;;5018925;28;20438;-82
2020/12/28 10:42:38;;;;;;;21.63;13.88;;;4.20;99.90;;;;;;5019652;28;20045;-80
2020/12/28 10:45:04;;;;;;;19.60;13.55;;;4.30;99.90;;;;;;5018391;28;20076;-81
2020/12/28 10:47:30;;;;;;;21.67;13.45;;;4.30;99.90;;;;;;5022376;28;20398;-82
2020/12/28 10:49:56;;;;;;;23.23;15.02;;;4.30;99.90;;;;;;5023666;28;20046;-82
2020/12/28 10:52:22;;;;;;;28.15;14.68;;;4.40;99.90;;;;;;5024975;28;20494;-81
2020/12/28 10:54:48;;;;;;;18.55;13.60;;;4.50;99.90;;;;;;5020854;28;20067;-82
2020/12/28 10:57:13;;;;;;;28.88;15.70;;;4.40;99.90;;;;;;5029788;28;20128;-81
2020/12/28 10:59:39;;;;;;;20.77;15.73;;;4.50;99.90;;;;;;5021182;28;20042;-81
2020/12/28 11:02:04;;;;;;;19.48;13.55;;;4.40;99.90;;;;;;5021276;28;20056;-85
2020/12/28 11:04:30;;;;;;;25.77;15.32;;;4.40;99.90;;;;;;5024608;28;20192;-83
2020/12/28 11:06:56;;;;;;;21.13;14.13;;;4.50;99.90;;;;;;5025640;28;20124;-84
2020/12/28 11:09:21;;;;;;;23.88;15.73;;;4.70;99.90;;;;;;5023303;28;21072;-83
2020/12/28 11:11:48;;;;;;;22.42;13.82;;;5.00;99.90;;;;;;5021970;28;20124;-83
2020/12/28 11:14:14;;;;;;;20.63;13.88;;;4.80;99.90;;;;;;5019844;28;20056;-83
2020/12/28 11:16:39;;;;;;;17.52;12.05;;;4.80;99.90;;;;;;5025558;28;20037;-81
2020/12/28 11:19:05;;;;;;;15.60;12.20;;;4.70;99.90;;;;;;5025312;28;20053;-83
2020/12/28 11:21:30;;;;;;;22.60;14.05;;;4.80;99.90;;;;;;5024170;28;20068;-82
2020/12/28 11:23:59;;;;;;;21.95;13.75;;;5.30;99.90;;;;;;5025346;28;20046;-82
2020/12/28 11:26:26;;;;;;;21.98;15.30;;;5.30;99.90;;;;;;5028281;28;20424;-83
2020/12/28 11:28:52;;;;;;;19.40;14.07;;;6.20;99.90;;;;;;5024116;28;20500;-83
2020/12/28 11:31:18;;;;;;;17.25;12.50;;;6.70;99.90;;;;;;5024993;28;20053;-84
2020/12/28 11:33:44;;;;;;;17.20;10.57;;;7.30;99.90;;;;;;5026007;28;20056;-83
2020/12/28 11:36:11;;;;;;;20.60;13.07;;;7.70;99.90;;;;;;5025578;28;20041;-84
2020/12/28 11:38:37;;;;;;;23.25;12.02;;;7.00;99.90;;;;;;5022379;28;20037;-83
2020/12/28 11:41:03;;;;;;;16.73;11.02;;;6.10;99.90;;;;;;5025197;28;20129;-82
2020/12/28 11:43:29;;;;;;;16.33;10.60;;;6.20;99.90;;;;;;5024859;28;20567;-83
2020/12/28 11:45:55;;;;;;;14.68;10.65;;;6.40;99.90;;;;;;5027500;28;20045;-84
2020/12/28 11:48:21;;;;;;;18.83;12.27;;;6.80;99.90;;;;;;5024773;28;20052;-86
2020/12/28 11:50:47;;;;;;;16.98;10.07;;;7.00;99.90;;;;;;5024410;28;20057;-85
2020/12/28 11:53:14;;;;;;;16.98;11.05;;;7.40;99.90;;;;;;5020627;28;20045;-86
2020/12/28 11:58:25;;;;;;;14.07;8.27;;;7.30;99.90;;;;;;5013815;28;20091;-85
2020/12/28 12:00:50;;;;;;;17.05;10.85;;;7.60;99.90;;;;;;5025926;28;20049;-85
2020/12/28 12:03:16;;;;;;;15.57;9.65;;;7.80;99.90;;;;;;5024806;28;20357;-84
2020/12/28 12:05:42;;;;;;;13.55;9.68;;;8.30;99.90;;;;;;5024088;28;20049;-86
2020/12/28 12:08:07;;;;;;;9.95;8.73;;;8.20;99.90;;;;;;5023865;28;20042;-86
2020/12/28 12:10:33;;;;;;;10.98;8.10;;;7.70;99.90;;;;;;5024314;28;20449;-86
2020/12/28 12:12:58;;;;;;;16.33;10.25;;;7.90;99.90;;;;;;5023519;28;20140;-85
2020/12/28 12:15:24;;;;;;;16.63;9.88;;;8.50;99.90;;;;;;5039424;28;20112;-85
2020/12/28 12:17:50;;;;;;;13.80;9.40;;;8.00;99.90;;;;;;5014104;28;20046;-87
2020/12/28 12:20:16;;;;;;;22.67;9.73;;;8.20;99.90;;;;;;5023027;28;20140;-86
2020/12/28 12:22:42;;;;;;;17.92;9.48;;;7.70;99.90;;;;;;5037860;28;20255;-85
2020/12/28 12:25:07;;;;;;;14.48;8.63;;;8.00;99.90;;;;;;5038682;28;20057;-85
2020/12/28 12:27:33;;;;;;;13.30;8.85;;;8.00;99.90;;;;;;5034839;28;20055;-86
2020/12/28 12:29:59;;;;;;;17.65;8.70;;;8.20;99.90;;;;;;5028004;28;20041;-84
2020/12/28 12:32:25;;;;;;;13.57;8.40;;;8.10;99.90;;;;;;5019964;28;20065;-87
2020/12/28 12:34:50;;;;;;;13.95;8.80;;;8.50;99.90;;;;;;5023237;28;20038;-86
2020/12/28 12:37:17;;;;;;;17.23;10.02;;;8.70;99.90;;;;;;5019525;28;20535;-86